Adin, California
Current Conditions -  °F | °C
As of 4:55 PM on Tuesday 25 Nov 2014 (Local Time) from KAAT Reporting Station
Clear Clear  
Wind Chill: 45°   Ceiling: Unl
Heat Index: 45°   Visibility: 10mi
Dew Point: 38°   Wind: 3mph
Humidity: 76%   Direction: 300°WNW
Pressure: 30.43"   Gusts: NA
Location:  41.19°N, 120.95°W
Report Text: KAAT 260055Z AUTO 30003KT 10SM CLR 07/03 A3043 RMK AO2 SLP312 T00720033 $
Loading
Personal Weather Stations






























Interactive Weather Map New forecast layout! Learn more

10-Day Weather Forecast

Advertisements
Track Severe Weather on mobile